createdAt,value
2019-04-06T00:02:32.684Z,5.87
2019-04-06T00:07:36.213Z,6.37
2019-04-06T00:12:39.608Z,6.87
2019-04-06T00:17:42.988Z,5.27
2019-04-06T00:22:46.372Z,5.90
2019-04-06T00:27:49.755Z,7.23
2019-04-06T00:33:06.687Z,6.73
2019-04-06T00:38:10.075Z,6.90
2019-04-06T00:43:13.455Z,7.13
2019-04-06T00:48:16.827Z,6.17
2019-04-06T00:53:20.276Z,6.23
2019-04-06T00:58:23.670Z,6.10
2019-04-06T01:03:27.051Z,5.33
2019-04-06T01:08:30.439Z,5.47
2019-04-06T01:13:33.831Z,8.43
2019-04-06T01:18:37.207Z,6.60
2019-04-06T01:23:40.586Z,6.03
2019-04-06T01:28:43.967Z,4.80
2019-04-06T01:33:47.357Z,7.07
2019-04-06T01:38:50.743Z,5.80
2019-04-06T01:43:54.131Z,6.00
2019-04-06T01:48:57.507Z,6.67
2019-04-06T01:54:00.898Z,6.90
2019-04-06T01:59:04.343Z,6.83
2019-04-06T02:04:07.802Z,6.63
2019-04-06T02:09:11.215Z,7.77
2019-04-06T02:14:14.651Z,6.90
2019-04-06T02:19:18.103Z,6.13
2019-04-06T02:24:21.491Z,6.83
2019-04-06T02:29:24.891Z,8.10
2019-04-06T02:34:29.910Z,5.97
2019-04-06T02:39:43.863Z,6.77
2019-04-06T02:44:47.240Z,7.30
2019-04-06T02:49:50.636Z,6.70
2019-04-06T02:54:54.043Z,7.50
2019-04-06T02:59:57.588Z,6.10
2019-04-06T03:05:01.105Z,7.13
2019-04-06T03:10:06.112Z,6.40
2019-04-06T03:15:09.691Z,6.83
2019-04-06T03:20:13.295Z,6.20
2019-04-06T03:25:16.670Z,7.47
2019-04-06T03:30:20.268Z,7.47
2019-04-06T03:35:23.680Z,7.53
2019-04-06T03:40:27.076Z,6.53
2019-04-06T03:45:30.465Z,7.17
2019-04-06T03:50:33.863Z,5.53
2019-04-06T03:55:37.244Z,6.73
2019-04-06T04:00:40.672Z,7.40
2019-04-06T04:05:44.088Z,6.97
2019-04-06T04:10:48.071Z,5.80
2019-04-06T04:15:51.539Z,5.60
2019-04-06T04:20:55.102Z,5.53
2019-04-06T04:25:58.493Z,6.50
2019-04-06T04:31:01.889Z,7.10
2019-04-06T04:36:05.328Z,7.97
2019-04-06T04:41:08.794Z,7.37
2019-04-06T04:46:12.277Z,6.23
2019-04-06T04:51:15.647Z,5.37
2019-04-06T04:56:19.028Z,7.30
2019-04-06T05:01:22.412Z,6.07
2019-04-06T05:06:25.797Z,6.30
2019-04-06T05:11:29.179Z,5.50
2019-04-06T05:16:32.559Z,6.20
2019-04-06T05:21:35.947Z,6.33
2019-04-06T05:26:39.337Z,7.10
2019-04-06T05:31:42.720Z,6.27
2019-04-06T05:36:46.091Z,6.70
2019-04-06T05:41:50.786Z,6.50
2019-04-06T05:46:54.439Z,5.83
2019-04-06T05:51:57.823Z,6.33
2019-04-06T05:57:01.222Z,7.63
2019-04-06T06:02:04.873Z,7.60
2019-04-06T06:07:08.290Z,5.20
2019-04-06T06:12:12.858Z,5.60
2019-04-06T06:17:16.247Z,5.23
2019-04-06T06:22:19.627Z,3.93
2019-04-06T06:27:23.381Z,7.10
2019-04-06T06:32:26.926Z,6.60
2019-04-06T06:37:30.342Z,6.17
2019-04-06T06:42:33.892Z,6.47
2019-04-06T06:47:37.299Z,5.63
2019-04-06T06:52:40.695Z,7.60
2019-04-06T06:57:44.074Z,5.77
2019-04-06T07:02:47.471Z,6.20
2019-04-06T07:07:50.871Z,5.80
2019-04-06T07:12:54.246Z,4.80
2019-04-06T07:17:57.677Z,5.67
2019-04-06T07:23:01.103Z,7.07
2019-04-06T07:28:04.490Z,5.10
2019-04-06T07:33:07.877Z,5.50
2019-04-06T07:38:11.267Z,5.20
2019-04-06T07:43:14.662Z,5.63
2019-04-06T07:48:18.311Z,5.67
2019-04-06T07:53:21.700Z,4.00
2019-04-06T07:58:25.087Z,4.60
2019-04-06T08:03:28.471Z,4.37
2019-04-06T08:08:31.903Z,4.43
2019-04-06T08:13:35.292Z,4.40
2019-04-06T08:18:38.699Z,4.90
2019-04-06T08:23:42.093Z,4.80
2019-04-06T08:28:45.497Z,4.97
2019-04-06T08:33:48.955Z,5.63
2019-04-06T08:38:52.340Z,5.37
2019-04-06T08:43:55.797Z,5.13
2019-04-06T08:48:59.202Z,5.83
2019-04-06T08:54:02.597Z,5.67
2019-04-06T08:59:11.626Z,4.77
2019-04-06T09:04:11.160Z,5.87
2019-04-06T09:09:14.539Z,5.40
2019-04-06T09:14:17.938Z,5.93
2019-04-06T09:19:21.315Z,5.73
2019-04-06T09:24:24.700Z,4.80
2019-04-06T09:29:28.143Z,5.30
2019-04-06T09:34:31.588Z,4.80
2019-04-06T09:39:35.007Z,4.47
2019-04-06T09:44:45.875Z,5.03
2019-04-06T09:50:06.906Z,3.37
2019-04-06T09:55:17.636Z,4.50
2019-04-06T10:00:25.442Z,5.80
2019-04-06T10:05:33.395Z,3.93
2019-04-06T10:10:56.086Z,3.80
2019-04-06T10:16:07.071Z,4.27
2019-04-06T10:21:14.920Z,5.03
2019-04-06T10:26:36.063Z,5.23
2019-04-06T10:31:41.096Z,4.53
2019-04-06T10:36:48.943Z,4.30
2019-04-06T10:41:59.635Z,4.10
2019-04-06T10:47:07.625Z,5.50
2019-04-06T10:52:12.647Z,3.17
2019-04-06T10:57:23.835Z,5.00
2019-04-06T11:02:44.579Z,4.57
2019-04-06T11:07:49.612Z,3.97
2019-04-06T11:13:00.416Z,5.43
2019-04-06T11:18:08.546Z,3.90
2019-04-06T11:23:25.382Z,4.83
2019-04-06T11:28:30.470Z,4.70
2019-04-06T11:33:41.287Z,4.30
2019-04-06T11:39:01.544Z,5.40
2019-04-06T11:44:09.648Z,6.00
2019-04-06T11:49:30.935Z,4.33
2019-04-06T11:54:36.263Z,3.80
2019-04-06T11:59:41.487Z,5.10
2019-04-06T12:04:58.723Z,5.20
2019-04-06T12:10:12.216Z,4.57
2019-04-06T12:15:29.065Z,4.70
2019-04-06T12:20:36.771Z,5.17
2019-04-06T12:25:41.823Z,5.50
2019-04-06T12:30:52.920Z,4.90
2019-04-06T12:36:06.810Z,6.10
2019-04-06T12:41:18.261Z,5.10
2019-04-06T12:46:35.288Z,5.70
2019-04-06T12:51:46.225Z,5.80
2019-04-06T12:56:59.981Z,5.47
2019-04-06T13:02:14.084Z,6.50
2019-04-06T13:07:25.166Z,5.17
2019-04-06T13:12:36.047Z,6.30
2019-04-06T13:17:41.305Z,5.20
2019-04-06T13:27:49.205Z,4.77
2019-04-06T13:33:02.134Z,5.20
2019-04-06T13:38:07.167Z,5.50
2019-04-06T13:43:30.849Z,4.80
2019-04-06T13:48:35.964Z,6.40
2019-04-06T13:53:57.234Z,5.33
2019-04-06T13:59:02.260Z,5.57
2019-04-06T14:04:07.295Z,5.90
2019-04-06T14:09:15.474Z,5.67
2019-04-06T14:14:36.739Z,4.73
2019-04-06T14:19:53.934Z,5.17
2019-04-06T14:25:05.044Z,3.87
2019-04-06T14:30:22.463Z,4.00
2019-04-06T14:35:39.106Z,3.13
2019-04-06T14:41:00.033Z,3.07
2019-04-06T14:46:20.977Z,3.43
2019-04-06T14:51:40.746Z,3.80
2019-04-06T14:56:45.787Z,3.17
2019-04-06T15:02:07.251Z,3.50
2019-04-06T15:07:24.397Z,2.50
2019-04-06T15:12:32.125Z,2.70
2019-04-06T15:17:40.164Z,2.70
2019-04-06T15:23:01.302Z,3.30
2019-04-06T15:28:18.588Z,2.70
2019-04-06T15:33:26.603Z,2.37
2019-04-06T15:38:31.713Z,2.60
2019-04-06T15:43:39.789Z,2.73
2019-04-06T15:49:02.965Z,2.70
2019-04-06T15:54:07.986Z,2.50
2019-04-06T15:59:20.141Z,3.03
2019-04-06T16:04:41.502Z,1.97
2019-04-06T16:09:46.531Z,1.97
2019-04-06T16:15:07.815Z,2.80
2019-04-06T16:20:12.923Z,2.63
2019-04-06T16:25:20.663Z,2.00
2019-04-06T16:30:29.014Z,1.97
2019-04-06T16:35:37.393Z,2.20
2019-04-06T16:40:45.396Z,1.77
2019-04-06T16:45:59.401Z,2.00
2019-04-06T16:51:22.392Z,2.30
2019-04-06T16:56:27.554Z,2.03
2019-04-06T17:01:35.492Z,1.60
2019-04-06T17:06:56.887Z,1.90
2019-04-06T17:12:16.731Z,1.60
2019-04-06T17:17:24.467Z,1.40
2019-04-06T17:22:35.199Z,1.40
2019-04-06T17:27:40.215Z,1.60
2019-04-06T17:33:01.638Z,1.70
2019-04-06T17:38:15.385Z,2.17
2019-04-06T17:43:36.516Z,1.97
2019-04-06T17:48:47.495Z,1.63
2019-04-06T17:53:52.587Z,1.63
2019-04-06T17:58:57.616Z,1.90
2019-04-06T18:04:18.661Z,2.07
2019-04-06T18:09:26.631Z,1.90
2019-04-06T18:14:30.352Z,1.77
2019-04-06T18:19:34.815Z,2.30
2019-04-06T18:24:38.618Z,1.97
2019-04-06T18:29:42.065Z,1.97
2019-04-06T18:34:45.833Z,2.00
2019-04-06T18:39:50.864Z,1.90
2019-04-06T18:44:54.543Z,1.77
2019-04-06T18:49:58.009Z,2.20
2019-04-06T18:55:01.375Z,1.57
2019-04-06T19:00:13.359Z,1.60
2019-04-06T19:05:17.330Z,2.00
2019-04-06T19:10:23.471Z,1.70
2019-04-06T19:15:26.860Z,1.80
2019-04-06T19:20:30.437Z,1.90
2019-04-06T19:25:33.865Z,1.83
2019-04-06T19:30:37.475Z,2.13
2019-04-06T19:35:40.828Z,2.10
2019-04-06T19:40:44.214Z,1.70
2019-04-06T19:45:47.633Z,1.80
2019-04-06T19:50:51.563Z,2.07
2019-04-06T19:55:55.063Z,1.80
2019-04-06T20:00:58.688Z,2.27
2019-04-06T20:06:02.626Z,2.30
2019-04-06T20:11:06.333Z,2.50
2019-04-06T20:16:09.878Z,2.27
2019-04-06T20:21:13.275Z,2.23
2019-04-06T20:26:16.674Z,2.50
2019-04-06T20:31:20.684Z,2.57
2019-04-06T20:36:24.106Z,2.07
2019-04-06T20:41:27.878Z,2.57
2019-04-06T20:46:31.243Z,2.27
2019-04-06T20:51:34.629Z,1.70
2019-04-06T20:56:38.017Z,2.50
2019-04-06T21:01:41.677Z,2.03
2019-04-06T21:06:45.072Z,2.47
2019-04-06T21:11:48.970Z,2.13
2019-04-06T21:16:53.400Z,2.40
2019-04-06T21:21:58.825Z,2.50
2019-04-06T21:27:02.194Z,2.17
2019-04-06T21:32:06.295Z,2.30
2019-04-06T21:37:09.841Z,3.87
2019-04-06T21:42:13.243Z,2.77
2019-04-06T21:47:16.829Z,2.83
2019-04-06T21:52:20.334Z,2.20
2019-04-06T21:57:24.612Z,2.50
2019-04-06T22:02:28.612Z,2.43
2019-04-06T22:07:32.434Z,2.07
2019-04-06T22:12:35.992Z,2.20
2019-04-06T22:17:39.983Z,2.20
2019-04-06T22:22:43.447Z,2.37
2019-04-06T22:27:47.537Z,2.20
2019-04-06T22:32:51.366Z,2.67
2019-04-06T22:37:56.118Z,2.37
2019-04-06T22:42:59.749Z,2.70
2019-04-06T22:48:03.539Z,2.57
2019-04-06T22:53:07.509Z,2.33
2019-04-06T22:58:11.026Z,2.30
2019-04-06T23:03:32.258Z,2.47
2019-04-06T23:08:35.758Z,2.33
2019-04-06T23:13:39.390Z,2.93
2019-04-06T23:18:42.831Z,2.80
2019-04-06T23:23:46.472Z,2.10
2019-04-06T23:28:50.260Z,1.73
2019-04-06T23:33:54.198Z,1.63
2019-04-06T23:38:57.562Z,2.83
2019-04-06T23:44:01.466Z,2.00
2019-04-06T23:49:05.470Z,1.87
2019-04-06T23:54:08.845Z,1.53
2019-04-06T23:59:12.215Z,1.40
